Search for airport 
image banner adimage banner ad
image banner ad

DAUB - Biskra / Mohamed Khider

Located in , Algeria

ICAO - DAUB, IATA - BSK

Data provided by Airmate  

General information

Coordinates: N34°48'6" E5°44'30"
Elevation is 288 feet MSL.
 
Rated:
View ratings: [VIEW]


View others Airports in Biskra Province

Operational data

Open for public use
Current time UTC:
Current local time:
Weather
METAR: DAUB 122200Z 10003KT CAVOK 32/13 Q1013
TAF: TAF DAUB 121700Z 1218/1318 24010KT 9999 FEW040 BECMG 1219/1222 14008KT
View NOTAMs / SUP AIP / TFR affecting this airport [VIEW]
Communications frequencies: [VIEW]

Runways:

RWY identifierQFULength (ft)Width (ft)SurfaceLDA (ft)
13130°9469148ASP
31310°10171148

Airport contact information

Address: Algeria

Satellite view of DAUB